PWSweather.com
Personal Weather Stations
Station Observations
79674
AfterstegDE 79674

AfterstegDE 79674

Lat: 47.84344, Lon: 7.92844

Elevation: 809

Station Type: Davis Vantage 2 Aktive

Latest ConditionsUpdated 2:47:08 AM GMT+01:01 Saturday, Jul 30, 2016
Currently Today's Max Today's Min Today's Average
Temperature 57.0°F13.9°C 58.6°F14.8°C 56.8°F13.8°C 57.7°F14.3°C
Dew Point 55.0°F12.8°C 56.1°F13.4°C 54.9°F12.7°C 55.4°F13.0°C
Winds Calm Calm 0.9 mph ESE1.4 kmh ESE - 0.1 mph 0.2 kmh
Wind Gusts -- 0.9 mph1.4 kmh - -
Humidity 93% 93% 91% 92%
Pressure 29.98 in1015.2 mb 29.99 in1015.6 mb 29.97 in1014.9 mb -
Hour Temp Dew Point Humidity Winds Wind Gusts Pressure Precip Precip Rate Daily Precip Total
02:47 AM 57.0°F13.9°C 55.0°F12.8°C 93% Calm Calm -- 29.98 in1015.2 mb - 0.00 in0.0 mm 0.00 in0.0 mm
02:42 AM 56.8°F13.8°C 54.9°F12.7°C 93% Calm Calm -- 29.98 in1015.2 mb - 0.00 in0.0 mm 0.00 in0.0 mm
02:37 AM 57.0°F13.9°C 55.0°F12.8°C 93% Calm Calm -- 29.98 in1015.2 mb - 0.00 in0.0 mm 0.00 in0.0 mm
02:32 AM 57.2°F14.0°C 55.2°F12.9°C 93% Calm Calm -- 29.98 in1015.2 mb - 0.00 in0.0 mm 0.00 in0.0 mm
02:27 AM 57.2°F14.0°C 55.2°F12.9°C 93% Calm Calm -- 29.98 in1015.2 mb - 0.00 in0.0 mm 0.00 in0.0 mm
02:22 AM 57.0°F13.9°C 55.0°F12.8°C 93% Calm Calm -- 29.97 in1014.9 mb - 0.00 in0.0 mm 0.00 in0.0 mm
02:17 AM 57.2°F14.0°C 55.2°F12.9°C 93% Calm Calm -- 29.98 in1015.2 mb - 0.00 in0.0 mm 0.00 in0.0 mm
02:12 AM 57.2°F14.0°C 55.2°F12.9°C 93% Calm Calm -- 29.98 in1015.2 mb - 0.00 in0.0 mm 0.00 in0.0 mm
02:07 AM 57.2°F14.0°C 55.2°F12.9°C 93% Calm Calm -- 29.98 in1015.2 mb - 0.00 in0.0 mm 0.00 in0.0 mm
02:02 AM 57.2°F14.0°C 55.2°F12.9°C 93% Calm Calm -- 29.98 in1015.2 mb - 0.00 in0.0 mm 0.00 in0.0 mm
01:57 AM 57.4°F14.1°C 55.4°F13.0°C 93% Calm Calm -- 29.98 in1015.2 mb - 0.00 in0.0 mm 0.00 in0.0 mm
01:52 AM 57.4°F14.1°C 55.4°F13.0°C 93% Calm Calm -- 29.98 in1015.2 mb - 0.00 in0.0 mm 0.00 in0.0 mm
01:47 AM 57.4°F14.1°C 55.0°F12.8°C 92% Calm Calm -- 29.98 in1015.2 mb - 0.00 in0.0 mm 0.00 in0.0 mm
01:42 AM 57.4°F14.1°C 55.0°F12.8°C 92% Calm Calm -- 29.98 in1015.2 mb - 0.00 in0.0 mm 0.00 in0.0 mm
01:37 AM 57.4°F14.1°C 55.0°F12.8°C 92% Calm Calm -- 29.98 in1015.2 mb - 0.00 in0.0 mm 0.00 in0.0 mm
01:32 AM 57.4°F14.1°C 55.0°F12.8°C 92% Calm Calm -- 29.98 in1015.2 mb - 0.00 in0.0 mm 0.00 in0.0 mm
01:27 AM 57.6°F14.2°C 55.2°F12.9°C 92% Calm Calm -- 29.99 in1015.6 mb - 0.00 in0.0 mm 0.00 in0.0 mm
01:22 AM 57.6°F14.2°C 55.2°F12.9°C 92% 0.9 mph ESE1.4 kmh ESE -- 29.98 in1015.2 mb - 0.00 in0.0 mm 0.00 in0.0 mm
01:17 AM 57.7°F14.3°C 55.4°F13.0°C 92% 0.9 mph ESE1.4 kmh ESE -- 29.98 in1015.2 mb - 0.00 in0.0 mm 0.00 in0.0 mm
01:12 AM 57.9°F14.4°C 55.6°F13.1°C 92% Calm Calm -- 29.98 in1015.2 mb - 0.00 in0.0 mm 0.00 in0.0 mm
01:07 AM 57.9°F14.4°C 55.6°F13.1°C 92% Calm Calm -- 29.98 in1015.2 mb - 0.00 in0.0 mm 0.00 in0.0 mm
01:02 AM 58.1°F14.5°C 55.4°F13.0°C 91% Calm Calm -- 29.98 in1015.2 mb - 0.00 in0.0 mm 0.00 in0.0 mm
12:57 AM 58.5°F14.7°C 56.1°F13.4°C 92% Calm Calm 0.9 mph1.4 kmh 29.98 in1015.2 mb - 0.00 in0.0 mm 0.00 in0.0 mm
12:52 AM 58.3°F14.6°C 55.9°F13.3°C 92% Calm Calm -- 29.98 in1015.2 mb - 0.00 in0.0 mm 0.00 in0.0 mm
12:47 AM 58.3°F14.6°C 55.6°F13.1°C 91% Calm Calm -- 29.98 in1015.2 mb - 0.00 in0.0 mm 0.00 in0.0 mm
12:42 AM 58.5°F14.7°C 56.1°F13.4°C 92% Calm Calm -- 29.98 in1015.2 mb - 0.00 in0.0 mm 0.00 in0.0 mm
12:37 AM 58.3°F14.6°C 55.9°F13.3°C 92% Calm Calm -- 29.98 in1015.2 mb - 0.00 in0.0 mm 0.00 in0.0 mm
12:32 AM 58.3°F14.6°C 55.9°F13.3°C 92% Calm Calm -- 29.99 in1015.6 mb - 0.00 in0.0 mm 0.00 in0.0 mm
12:27 AM 58.3°F14.6°C 55.6°F13.1°C 91% Calm Calm -- 29.99 in1015.6 mb - 0.00 in0.0 mm 0.00 in0.0 mm
12:22 AM 58.5°F14.7°C 55.8°F13.2°C 91% Calm Calm -- 29.99 in1015.6 mb - 0.00 in0.0 mm 0.00 in0.0 mm
12:17 AM 58.5°F14.7°C 55.8°F13.2°C 91% Calm Calm -- 29.99 in1015.6 mb - 0.00 in0.0 mm 0.00 in0.0 mm
12:12 AM 58.5°F14.7°C 55.8°F13.2°C 91% Calm Calm -- 29.99 in1015.6 mb - 0.00 in0.0 mm 0.00 in0.0 mm
12:07 AM 58.6°F14.8°C 55.9°F13.3°C 91% Calm Calm -- 29.98 in1015.2 mb - 0.00 in0.0 mm 0.00 in0.0 mm
12:02 AM 58.5°F14.7°C 55.8°F13.2°C 91% Calm Calm -- 29.99 in1015.6 mb - 0.00 in0.0 mm 0.00 in0.0 mm